Terminal Aerodrome Forecast
Issued by NWS

Home | Current Version | Previous Version | Text Only | Print | Product List | Glossary On
Versions: 1 2 3 4 5 6 7 8 9 10 11 12
872
FTUS46 KMTR 181729
TAFOAK
TAF
KOAK 181729Z 1818/1924 28018KT P6SM FEW015 SCT040
     FM182000 27018G27KT P6SM SCT040
     FM190300 29012KT P6SM FEW040
     FM191000 32015KT P6SM VCSH BKN040
     FM191500 30012KT P6SM SCT040=

USA.gov is the U.S. government's official web portal to all federal, state and local government web resources and services.